Time;durP1;ratioP1;P1;durP2;ratioP2;P2;SDS_P1;SDS_P2;PMS_P1;PMS_P2;Temp;Humidity;BMP_temperature;BMP_pressure;BME280_temperature;BME280_humidity;BME280_pressure;Samples;Min_cycle;Max_cycle;Signal;HPM_P1;HPM_P2
2022/06/19 00:00:29;;;;;;;;;19.00;17.25;;;;;24.82;63.86;98935.19;5014435;28;47424;-58
2022/06/19 00:02:54;;;;;;;;;22.00;20.25;;;;;24.79;64.80;98923.88;5015671;28;45312;-58
2022/06/19 00:05:20;;;;;;;;;26.25;24.75;;;;;24.77;64.33;98926.72;5014896;28;45451;-58
2022/06/19 00:07:45;;;;;;;;;27.00;23.75;;;;;24.76;64.34;98916.94;4997505;28;48576;-58
2022/06/19 00:10:11;;;;;;;;;20.00;17.25;;;;;24.74;64.42;98918.09;5015586;28;45381;-58
2022/06/19 00:12:37;;;;;;;;;20.00;17.00;;;;;24.69;64.42;98916.72;5010558;28;45475;-58
2022/06/19 00:15:03;;;;;;;;;22.00;20.25;;;;;24.68;63.84;98925.81;5014979;28;45476;-58
2022/06/19 00:17:29;;;;;;;;;21.25;19.00;;;;;24.65;64.38;98928.81;5015214;28;45405;-58
2022/06/19 00:19:54;;;;;;;;;24.50;22.75;;;;;24.66;64.03;98900.84;5015138;28;45429;-59
2022/06/19 00:22:19;;;;;;;;;23.75;21.50;;;;;24.63;64.47;98922.72;5015019;28;45457;-59
2022/06/19 00:24:45;;;;;;;;;23.25;20.75;;;;;24.63;64.42;98913.81;5014878;28;45414;-58
2022/06/19 00:27:10;;;;;;;;;21.25;20.75;;;;;24.66;64.78;98911.63;5014796;28;45711;-59
2022/06/19 00:29:36;;;;;;;;;24.00;21.25;;;;;24.68;64.58;98909.63;5013959;28;45423;-58
2022/06/19 00:32:04;;;;;;;;;22.50;19.25;;;;;24.68;64.38;98925.81;5014942;28;45369;-58
2022/06/19 00:34:31;;;;;;;;;24.75;24.25;;;;;24.68;64.52;98900.69;5014632;28;45564;-59
2022/06/19 00:36:58;;;;;;;;;25.75;22.75;;;;;24.67;64.51;98937.59;5014069;28;45488;-58
2022/06/19 00:39:24;;;;;;;;;23.00;22.00;;;;;24.70;66.65;98893.28;5014688;28;45433;-58
2022/06/19 00:41:49;;;;;;;;;25.75;22.75;;;;;24.67;64.57;98904.38;5014919;28;45435;-58
2022/06/19 00:44:16;;;;;;;;;18.25;16.75;;;;;24.67;64.85;98931.34;4997008;28;45815;-58
2022/06/19 00:47:13;;;;;;;;;25.00;23.75;;;;;24.69;64.69;98932.88;5013269;28;46522;-58
2022/06/19 00:49:43;;;;;;;;;25.25;25.00;;;;;24.70;64.16;98902.22;5014133;28;45447;-58
2022/06/19 00:52:21;;;;;;;;;26.75;24.00;;;;;24.69;64.92;98899.69;5014406;28;45446;-59
2022/06/19 00:54:54;;;;;;;;;20.75;20.75;;;;;24.73;64.47;98919.09;5013914;28;45525;-58
2022/06/19 00:57:20;;;;;;;;;22.00;22.00;;;;;24.75;64.47;98907.16;5014372;28;46459;-58
2022/06/19 01:00:05;;;;;;;;;17.75;16.75;;;;;24.80;63.97;98901.31;5013742;28;45449;-59
2022/06/19 01:02:31;;;;;;;;;20.75;20.75;;;;;24.82;63.77;98904.66;5013702;28;45475;-58
2022/06/19 01:04:57;;;;;;;;;27.25;23.50;;;;;24.86;64.20;98906.06;5013987;28;45582;-58
2022/06/19 01:07:24;;;;;;;;;23.00;19.75;;;;;24.89;63.79;98911.13;5009952;28;46310;-58
2022/06/19 01:09:50;;;;;;;;;21.75;19.50;;;;;24.94;64.01;98898.06;5006913;28;45387;-58
2022/06/19 01:12:16;;;;;;;;;29.25;24.75;;;;;24.93;63.69;98902.59;5014785;28;45481;-58
2022/06/19 01:14:45;;;;;;;;;26.50;24.50;;;;;24.96;63.95;98902.31;5013487;28;45509;-58
2022/06/19 01:17:13;;;;;;;;;21.50;21.00;;;;;24.99;63.72;98901.97;5013806;28;45470;-58
2022/06/19 01:19:41;;;;;;;;;21.50;21.50;;;;;24.97;63.99;98901.28;5012980;28;45308;-58
2022/06/19 01:22:35;;;;;;;;;27.00;26.75;;;;;24.95;64.67;98899.78;5012472;28;45392;-58
2022/06/19 01:25:22;;;;;;;;;27.50;22.00;;;;;24.92;64.35;98905.44;4999745;28;45551;-58
2022/06/19 01:30:45;;;;;;;;;17.50;16.00;;;;;24.79;64.33;98905.84;5013674;28;45299;-58
2022/06/19 01:33:16;;;;;;;;;17.50;15.75;;;;;24.75;64.18;98906.31;5014741;28;45454;-58
2022/06/19 01:35:46;;;;;;;;;25.00;23.50;;;;;24.68;64.57;98919.56;5004214;28;45333;-59
2022/06/19 01:38:15;;;;;;;;;26.00;24.25;;;;;24.64;64.41;98896.59;5009428;28;46823;-58
2022/06/19 01:40:44;;;;;;;;;20.75;19.00;;;;;24.62;64.55;98890.56;5013063;28;45372;-58
2022/06/19 01:43:11;;;;;;;;;25.00;22.75;;;;;24.57;64.93;98880.22;5013945;28;45469;-58
2022/06/19 01:45:43;;;;;;;;;23.75;22.00;;;;;24.55;65.57;98884.06;5013224;28;45458;-58
2022/06/19 01:48:09;;;;;;;;;26.00;26.00;;;;;24.52;65.45;98877.13;5008008;28;46652;-58
2022/06/19 01:50:35;;;;;;;;;22.50;22.25;;;;;24.52;65.42;98884.38;5013740;28;45437;-58
2022/06/19 01:53:07;;;;;;;;;24.25;22.75;;;;;24.53;64.44;98888.78;5014813;28;45402;-58
2022/06/19 01:55:34;;;;;;;;;19.00;19.00;;;;;24.51;64.31;98878.13;5012745;28;45494;-58
2022/06/19 01:58:01;;;;;;;;;25.00;24.25;;;;;24.49;65.28;98882.00;5013733;28;45570;-58
2022/06/19 02:00:29;;;;;;;;;28.75;26.25;;;;;24.50;64.90;98881.00;5016780;28;45474;-58
2022/06/19 02:03:07;;;;;;;;;24.75;22.50;;;;;24.49;64.76;98873.91;5017662;28;45402;-59
2022/06/19 02:05:34;;;;;;;;;18.25;17.25;;;;;24.47;64.47;98876.75;5014359;28;45727;-58
2022/06/19 02:07:59;;;;;;;;;25.00;25.00;;;;;24.45;64.62;98849.13;5016864;28;45650;-58
2022/06/19 02:10:26;;;;;;;;;23.25;22.00;;;;;24.42;64.57;98873.69;4998875;28;45351;-58
2022/06/19 02:12:52;;;;;;;;;27.00;25.50;;;;;24.40;64.27;98845.22;4994007;28;46195;-58
2022/06/19 02:15:17;;;;;;;;;27.67;26.67;;;;;24.38;64.08;98853.44;5013079;28;45465;-58
2022/06/19 02:17:51;;;;;;;;;23.67;23.67;;;;;24.39;63.06;98840.81;5017157;28;46461;-59
2022/06/19 02:20:19;;;;;;;;;27.33;25.33;;;;;24.37;62.97;98846.34;5016368;28;45523;-58
2022/06/19 02:22:44;;;;;;;;;27.67;25.33;;;;;24.35;63.57;98837.59;4999679;28;45373;-58
2022/06/19 02:25:10;;;;;;;;;26.33;26.33;;;;;24.32;64.00;98837.88;5016713;28;45399;-59
2022/06/19 02:27:37;;;;;;;;;24.00;23.00;;;;;24.31;63.00;98850.50;5016997;28;46597;-59
2022/06/19 02:30:05;;;;;;;;;27.33;23.00;;;;;24.26;64.33;98831.28;5016643;28;45473;-58
2022/06/19 02:32:39;;;;;;;;;26.25;25.50;;;;;24.18;64.88;98850.03;5016378;28;45468;-58
2022/06/19 02:35:07;;;;;;;;;25.33;23.67;;;;;24.15;64.63;98830.63;5016187;28;45488;-58
2022/06/19 02:37:40;;;;;;;;;30.33;26.67;;;;;24.09;64.00;98842.88;5016675;28;46232;-58
2022/06/19 02:40:28;;;;;;;;;30.33;29.67;;;;;24.05;65.53;98827.19;5016342;28;45571;-58
2022/06/19 02:42:53;;;;;;;;;32.33;28.00;;;;;24.01;65.49;98824.78;5014140;28;45589;-58
2022/06/19 02:45:27;;;;;;;;;26.50;23.50;;;;;24.01;65.31;98849.03;5016405;28;45517;-59
2022/06/19 02:47:55;;;;;;;;;27.50;24.25;;;;;24.02;65.67;98821.09;5014817;28;45553;-58
2022/06/19 02:50:25;;;;;;;;;28.00;26.33;;;;;24.00;65.48;98833.00;4996490;28;46124;-58
2022/06/19 02:52:51;;;;;;;;;30.00;28.33;;;;;24.00;65.26;98830.31;5016704;28;45333;-58
2022/06/19 02:55:18;;;;;;;;;27.33;26.67;;;;;24.03;64.95;98832.72;5016319;28;45857;-58
2022/06/19 02:57:43;;;;;;;;;30.33;29.33;;;;;24.07;64.92;98833.25;5015862;28;45538;-58
2022/06/19 03:00:14;;;;;;;;;31.00;29.33;;;;;24.13;63.87;98832.66;5016482;28;45374;-58
2022/06/19 03:02:40;;;;;;;;;28.67;27.00;;;;;24.15;63.29;98836.00;5016993;28;45404;-58
2022/06/19 03:05:09;;;;;;;;;36.67;33.33;;;;;24.17;63.32;98826.78;5016253;28;45379;-58
2022/06/19 03:07:34;;;;;;;;;33.33;29.00;;;;;24.16;63.10;98835.88;5010438;28;46527;-58
2022/06/19 03:10:00;;;;;;;;;27.00;25.67;;;;;24.17;62.96;98828.63;5001773;28;45454;-58
2022/06/19 03:12:25;;;;;;;;;32.00;29.67;;;;;24.17;63.27;98825.94;5016503;28;45446;-58
2022/06/19 03:14:51;;;;;;;;;39.67;33.67;;;;;24.14;63.25;98828.94;5015517;28;46191;-58
2022/06/19 03:17:19;;;;;;;;;33.00;28.67;;;;;24.11;63.35;98840.88;4998741;28;47172;-58
2022/06/19 03:19:45;;;;;;;;;37.00;32.33;;;;;24.08;63.11;98814.25;5006142;28;45514;-58
2022/06/19 03:22:11;;;;;;;;;35.00;30.67;;;;;24.07;63.16;98822.47;5016035;28;45534;-59
2022/06/19 03:24:38;;;;;;;;;34.00;32.00;;;;;24.04;63.32;98822.78;5015569;28;45472;-58
2022/06/19 03:27:05;;;;;;;;;33.67;30.67;;;;;24.06;63.11;98828.88;5015073;28;46517;-58
2022/06/19 03:29:30;;;;;;;;;28.67;25.67;;;;;24.06;63.64;98818.94;5015119;28;45466;-58
2022/06/19 03:31:56;;;;;;;;;29.67;26.33;;;;;24.02;63.04;98821.09;5016047;28;45403;-58
2022/06/19 03:34:22;;;;;;;;;27.25;24.00;;;;;23.98;63.13;98819.69;5015940;28;45402;-58
2022/06/19 03:36:47;;;;;;;;;29.50;24.25;;;;;23.95;63.02;98813.81;5015359;28;45482;-58
2022/06/19 03:39:12;;;;;;;;;29.67;27.67;;;;;23.93;63.17;98821.19;5015921;28;45336;-58
2022/06/19 03:41:38;;;;;;;;;27.25;25.25;;;;;23.92;63.26;98832.94;5014011;28;46076;-58
2022/06/19 03:44:04;;;;;;;;;26.00;24.33;;;;;23.93;62.97;98823.88;5015364;28;45482;-58
2022/06/19 03:46:30;;;;;;;;;27.25;24.75;;;;;23.91;62.99;98823.19;5014932;28;46029;-58
2022/06/19 03:48:55;;;;;;;;;28.50;26.50;;;;;23.89;62.82;98820.63;5015149;28;45413;-58
2022/06/19 03:51:25;;;;;;;;;29.25;27.75;;;;;23.89;63.21;98826.03;5015264;28;45557;-58
2022/06/19 03:53:52;;;;;;;;;26.00;24.25;;;;;23.91;62.96;98825.88;5016303;28;45429;-58
2022/06/19 03:56:26;;;;;;;;;29.33;26.33;;;;;23.92;63.21;98827.56;5014908;28;46016;-58
2022/06/19 03:58:52;;;;;;;;;30.25;27.00;;;;;23.95;62.89;98822.72;5014621;28;45382;-58
2022/06/19 04:01:21;;;;;;;;;30.00;29.67;;;;;23.92;63.02;98819.50;5014998;28;45528;-58
2022/06/19 04:03:49;;;;;;;;;30.75;28.25;;;;;23.85;63.01;98824.63;5006397;28;45597;-58
2022/06/19 04:06:17;;;;;;;;;26.25;24.50;;;;;23.81;62.95;98835.84;5013065;28;46247;-58
2022/06/19 04:08:46;;;;;;;;;27.25;25.50;;;;;23.76;62.95;98833.63;5002395;28;45462;-58
2022/06/19 04:11:17;;;;;;;;;24.50;23.25;;;;;23.74;62.87;98829.38;5014700;28;45457;-58
2022/06/19 04:13:42;;;;;;;;;26.00;25.33;;;;;23.72;63.97;98826.00;5013839;28;45493;-58
2022/06/19 04:16:13;;;;;;;;;24.75;24.25;;;;;23.64;62.95;98832.97;5014443;28;46666;-59
2022/06/19 04:18:38;;;;;;;;;25.50;23.75;;;;;23.62;62.88;98832.31;5013989;28;45278;-58
2022/06/19 04:21:05;;;;;;;;;25.67;25.33;;;;;23.61;63.36;98824.38;5014159;28;45188;-58
2022/06/19 04:23:31;;;;;;;;;27.50;26.00;;;;;23.63;63.14;98819.66;5014983;28;45328;-58
2022/06/19 04:25:56;;;;;;;;;26.25;25.25;;;;;23.67;63.11;98816.53;5014109;28;45518;-58
2022/06/19 04:28:24;;;;;;;;;28.25;25.75;;;;;23.73;62.95;98816.94;5013853;28;45475;-58
2022/06/19 04:30:50;;;;;;;;;26.33;26.00;;;;;23.77;63.07;98811.09;5006507;28;45496;-57
2022/06/19 04:33:18;;;;;;;;;27.50;25.50;;;;;23.82;62.94;98824.91;5014709;28;45453;-58
2022/06/19 04:35:44;;;;;;;;;33.00;31.00;;;;;23.87;62.13;98811.84;5014231;28;45568;-58
2022/06/19 04:38:10;;;;;;;;;37.33;32.33;;;;;23.88;62.38;98818.94;5013694;28;45515;-58
2022/06/19 04:40:36;;;;;;;;;31.67;30.67;;;;;23.90;62.48;98814.25;5016442;28;45529;-58
2022/06/19 04:43:02;;;;;;;;;41.33;34.67;;;;;23.93;62.79;98803.19;5010189;28;45332;-57
2022/06/19 04:45:28;;;;;;;;;40.67;33.67;;;;;23.96;63.01;98802.84;5010794;28;46272;-57
2022/06/19 04:47:53;;;;;;;;;39.33;34.67;;;;;23.99;63.15;98810.63;5013588;28;45439;-58
2022/06/19 04:50:19;;;;;;;;;45.33;35.00;;;;;24.05;63.18;98800.25;5029486;28;45470;-58
2022/06/19 04:52:44;;;;;;;;;39.67;34.33;;;;;24.06;63.02;98804.63;5014572;28;45466;-58
2022/06/19 04:55:11;;;;;;;;;42.67;35.33;;;;;24.09;62.24;98797.09;5014073;28;46411;-58
2022/06/19 04:57:37;;;;;;;;;41.67;36.00;;;;;24.09;62.97;98817.78;5012836;28;45497;-58
2022/06/19 05:00:06;;;;;;;;;40.00;35.00;;;;;24.08;62.76;98799.94;5014287;28;45533;-58
2022/06/19 05:02:31;;;;;;;;;41.00;33.67;;;;;24.04;62.85;98812.00;5013600;28;45375;-58
2022/06/19 05:04:57;;;;;;;;;22.00;19.00;;;;;24.01;62.53;98810.47;5013834;28;45446;-58
2022/06/19 05:07:22;;;;;;;;;28.67;27.33;;;;;23.96;62.14;98813.63;5013414;28;45422;-58
2022/06/19 05:09:47;;;;;;;;;30.00;28.67;;;;;23.94;62.43;98801.34;5013937;28;45379;-58
2022/06/19 05:12:13;;;;;;;;;29.00;27.33;;;;;23.95;62.43;98805.72;5014589;28;45538;-58
2022/06/19 05:14:38;;;;;;;;;25.67;23.67;;;;;23.99;62.08;98812.47;5013583;28;45473;-58
2022/06/19 05:17:04;;;;;;;;;41.67;33.00;;;;;24.04;62.42;98798.56;5013940;28;45409;-58
2022/06/19 05:19:29;;;;;;;;;29.33;28.33;;;;;24.08;62.04;98798.09;5013672;28;45397;-58
2022/06/19 05:21:55;;;;;;;;;43.33;37.00;;;;;24.14;62.02;98797.44;5015944;28;45448;-58
2022/06/19 05:24:20;;;;;;;;;39.33;35.00;;;;;24.18;63.01;98774.59;5014355;28;46217;-58
2022/06/19 05:26:46;;;;;;;;;45.33;39.00;;;;;24.24;62.78;98781.25;5013662;28;45398;-58
2022/06/19 05:29:12;;;;;;;;;36.33;32.33;;;;;24.28;62.08;98777.25;5012805;28;45481;-58
2022/06/19 05:31:37;;;;;;;;;43.33;36.67;;;;;24.34;61.58;98779.31;5012308;28;45505;-58
2022/06/19 05:34:03;;;;;;;;;41.67;35.33;;;;;24.39;61.20;98763.50;5016984;28;47419;-58
2022/06/19 05:36:29;;;;;;;;;46.67;39.00;;;;;24.45;61.70;98762.91;4999218;28;45703;-58
2022/06/19 05:38:55;;;;;;;;;40.33;35.00;;;;;24.54;60.71;98761.94;5016715;28;45370;-58
2022/06/19 05:41:20;;;;;;;;;43.00;36.33;;;;;24.63;60.50;98770.94;5017264;28;45371;-58
2022/06/19 05:43:49;;;;;;;;;40.00;33.67;;;;;24.71;60.35;98768.28;5017361;28;46371;-58
2022/06/19 05:46:17;;;;;;;;;43.33;35.67;;;;;24.80;60.22;98772.69;5016745;28;45702;-58
2022/06/19 05:48:43;;;;;;;;;48.00;36.33;;;;;24.88;60.51;98775.44;5015574;28;45469;-58
2022/06/19 05:51:12;;;;;;;;;31.00;30.00;;;;;24.91;59.64;98777.84;5016903;28;45520;-58
2022/06/19 05:53:40;;;;;;;;;29.00;27.33;;;;;24.86;59.36;98779.31;5017880;28;45416;-57
2022/06/19 05:56:06;;;;;;;;;30.33;29.67;;;;;24.83;59.51;98785.00;5017178;28;45493;-58
2022/06/19 05:58:32;;;;;;;;;31.00;27.33;;;;;24.74;59.27;98776.03;5017427;28;45375;-58
2022/06/19 06:00:58;;;;;;;;;26.50;24.50;;;;;24.65;58.82;98782.38;5013040;28;45564;-58
2022/06/19 06:03:26;;;;;;;;;24.50;24.00;;;;;24.59;58.73;98773.09;5017041;28;46372;-58
2022/06/19 06:05:52;;;;;;;;;28.25;25.00;;;;;24.59;58.92;98767.69;4998099;28;45564;-58
2022/06/19 06:08:18;;;;;;;;;21.25;21.00;;;;;24.65;58.96;98777.84;5009451;28;45657;-58
2022/06/19 06:10:45;;;;;;;;;28.50;26.50;;;;;24.70;58.61;98763.88;5016572;28;45510;-58
2022/06/19 06:13:10;;;;;;;;;28.00;27.25;;;;;24.75;58.49;98777.75;5017164;28;46234;-58
2022/06/19 06:15:36;;;;;;;;;35.67;33.00;;;;;24.80;58.75;98750.31;5016711;28;45346;-58
2022/06/19 06:18:03;;;;;;;;;30.33;29.00;;;;;24.85;58.64;98758.72;5017158;28;45598;-58
2022/06/19 06:20:29;;;;;;;;;32.33;30.33;;;;;24.89;58.52;98760.97;5014769;28;45490;-58
2022/06/19 06:22:55;;;;;;;;;31.67;30.00;;;;;24.97;58.48;98746.69;5015483;28;45525;-58
2022/06/19 06:25:20;;;;;;;;;35.67;31.67;;;;;25.07;58.59;98751.97;5016096;28;45461;-58
2022/06/19 06:27:46;;;;;;;;;31.00;28.33;;;;;25.16;58.48;98748.28;5014316;28;45402;-58
2022/06/19 06:30:12;;;;;;;;;28.75;25.00;;;;;25.22;57.54;98759.28;5016547;28;45538;-58
2022/06/19 06:32:38;;;;;;;;;32.67;29.67;;;;;25.26;57.11;98751.72;5016539;28;45430;-58
2022/06/19 06:35:04;;;;;;;;;24.25;24.25;;;;;25.27;56.71;98743.44;5016147;28;45544;-58
2022/06/19 06:37:30;;;;;;;;;23.00;21.50;;;;;25.27;57.02;98750.72;5016810;28;45656;-58
2022/06/19 06:39:55;;;;;;;;;25.75;23.75;;;;;25.27;56.78;98745.31;5016357;28;45557;-58
2022/06/19 06:42:21;;;;;;;;;24.50;24.50;;;;;25.31;56.80;98754.75;5016339;28;45441;-58
2022/06/19 06:44:47;;;;;;;;;23.00;22.25;;;;;25.32;57.10;98756.44;5013956;28;45429;-58
2022/06/19 06:47:12;;;;;;;;;20.25;20.25;;;;;25.35;56.83;98750.72;5017077;28;45465;-58
2022/06/19 06:49:38;;;;;;;;;20.75;20.50;;;;;25.34;56.59;98749.88;5015788;28;45477;-58
2022/06/19 06:52:07;;;;;;;;;26.50;24.75;;;;;25.40;56.31;98732.19;5016459;28;46313;-58
2022/06/19 06:54:35;;;;;;;;;24.00;22.75;;;;;25.48;56.22;98742.13;5016247;28;45411;-59
2022/06/19 06:57:01;;;;;;;;;24.00;22.75;;;;;25.60;56.04;98735.44;5015464;28;45450;-58
2022/06/19 06:59:26;;;;;;;;;26.75;21.50;;;;;25.69;55.86;98702.06;5015673;28;45366;-58
2022/06/19 07:01:51;;;;;;;;;26.25;25.25;;;;;25.83;55.26;98724.84;5015561;28;45487;-58
2022/06/19 07:04:17;;;;;;;;;23.75;23.75;;;;;25.96;53.88;98700.91;5016652;28;45501;-58
2022/06/19 07:06:42;;;;;;;;;23.50;23.50;;;;;26.13;54.65;98723.34;5015511;28;45434;-58
2022/06/19 07:09:08;;;;;;;;;24.50;22.00;;;;;26.26;54.56;98732.63;4990593;28;45455;-58
2022/06/19 07:11:40;;;;;;;;;23.25;21.50;;;;;26.40;54.53;98721.16;5015178;28;46201;-58
2022/06/19 07:14:06;;;;;;;;;24.75;23.25;;;;;26.53;54.73;98719.75;5015800;28;45390;-58
2022/06/19 07:16:32;;;;;;;;;24.00;23.50;;;;;26.63;53.50;98704.22;5015469;28;45418;-58
2022/06/19 07:18:57;;;;;;;;;24.25;23.75;;;;;26.74;53.26;98706.53;5015470;28;45581;-58
2022/06/19 07:21:22;;;;;;;;;21.75;21.00;;;;;26.84;53.03;98704.44;5014624;28;45463;-58
2022/06/19 07:23:48;;;;;;;;;22.50;20.00;;;;;26.95;53.33;98705.97;5015868;28;45387;-58
2022/06/19 07:26:17;;;;;;;;;24.25;24.25;;;;;27.06;53.32;98714.53;5015143;28;45450;-58
2022/06/19 07:28:43;;;;;;;;;19.00;18.50;;;;;27.23;49.87;98712.59;5015564;28;45729;-59
2022/06/19 07:31:10;;;;;;;;;21.25;20.25;;;;;27.42;50.27;98703.19;5014553;28;46202;-58
2022/06/19 07:33:37;;;;;;;;;22.25;20.75;;;;;27.58;49.65;98695.00;5015959;28;45480;-58
2022/06/19 07:36:04;;;;;;;;;20.50;18.50;;;;;27.75;49.98;98706.56;5014468;28;45599;-58
2022/06/19 07:38:29;;;;;;;;;16.25;15.50;;;;;27.90;46.45;98693.06;5015548;28;45793;-58
2022/06/19 07:40:55;;;;;;;;;21.00;20.25;;;;;28.06;48.56;98704.59;5013557;28;46027;-58
2022/06/19 07:43:20;;;;;;;;;15.00;15.00;;;;;28.20;47.18;98691.28;5014153;28;45422;-58
2022/06/19 07:45:45;;;;;;;;;20.00;19.50;;;;;28.36;45.57;98696.56;5014869;28;45552;-58
2022/06/19 07:50:56;;;;;;;;;21.50;19.00;;;;;28.74;44.27;98695.47;5014926;28;45348;-58
2022/06/19 07:53:21;;;;;;;;;19.00;17.25;;;;;28.91;44.02;98696.16;5014496;28;45395;-58
2022/06/19 07:55:47;;;;;;;;;19.50;17.75;;;;;29.07;42.72;98692.38;5014500;28;45623;-58
2022/06/19 07:58:12;;;;;;;;;16.25;15.25;;;;;29.23;39.16;98683.16;5013800;28;45541;-58
2022/06/19 08:00:38;;;;;;;;;11.75;11.00;;;;;29.42;41.74;98694.28;5014017;28;46333;-58
2022/06/19 08:03:04;;;;;;;;;19.00;17.75;;;;;29.60;41.65;98679.44;4994078;28;45762;-58
2022/06/19 08:05:33;;;;;;;;;19.75;17.50;;;;;29.78;41.02;98690.69;5008266;28;45595;-58
2022/06/19 08:07:59;;;;;;;;;16.50;15.00;;;;;29.94;39.63;98679.56;5015051;28;45450;-58
2022/06/19 08:10:38;;;;;;;;;16.00;15.00;;;;;30.12;39.31;98690.00;5014255;28;46213;-58
2022/06/19 08:13:04;;;;;;;;;19.25;16.25;;;;;30.31;37.36;98675.72;5005220;28;45390;-58
2022/06/19 08:15:32;;;;;;;;;13.25;12.75;;;;;30.50;36.87;98679.59;5007223;28;45441;-58
2022/06/19 08:17:57;;;;;;;;;15.50;13.75;;;;;30.69;35.78;98681.63;5014225;28;45387;-58
2022/06/19 08:20:23;;;;;;;;;20.00;15.25;;;;;30.86;35.50;98672.09;5014845;28;45739;-58
2022/06/19 08:22:50;;;;;;;;;13.00;11.20;;;;;31.08;33.38;98672.81;5015830;28;45272;-58
2022/06/19 08:25:18;;;;;;;;;14.00;12.75;;;;;31.31;33.74;98668.97;5023316;28;45441;-58
2022/06/19 08:27:47;;;;;;;;;14.50;14.00;;;;;31.49;33.86;98672.78;5011637;28;45396;-58
2022/06/19 08:30:16;;;;;;;;;17.50;16.25;;;;;31.66;33.12;98669.69;5014185;28;45511;-58
2022/06/19 08:32:41;;;;;;;;;19.50;17.25;;;;;31.80;32.26;98676.84;5014349;28;45386;-58
2022/06/19 08:35:08;;;;;;;;;16.75;13.00;;;;;31.94;31.83;98670.34;4991190;28;45228;-58
2022/06/19 08:37:35;;;;;;;;;14.25;13.00;;;;;32.07;32.71;98659.44;5011252;28;45410;-58
2022/06/19 08:40:07;;;;;;;;;14.50;11.50;;;;;32.18;31.23;98663.41;5013421;28;46422;-58
2022/06/19 08:43:02;;;;;;;;;16.25;13.75;;;;;32.31;30.91;98657.16;5009276;28;45371;-58
2022/06/19 08:45:35;;;;;;;;;19.50;13.00;;;;;32.44;31.38;98657.13;5013770;28;45391;-58
2022/06/19 08:48:03;;;;;;;;;12.75;12.25;;;;;32.54;30.50;98654.78;5015386;28;45472;-58
2022/06/19 08:50:40;;;;;;;;;16.00;13.00;;;;;32.63;29.52;98639.88;5014411;28;45439;-58
2022/06/19 08:53:24;;;;;;;;;11.00;11.00;;;;;32.75;29.39;98645.53;5008733;28;45505;-58
2022/06/19 08:56:13;;;;;;;;;16.50;13.25;;;;;32.87;29.75;98655.56;5013320;28;45464;-58
2022/06/19 08:59:04;;;;;;;;;13.00;12.00;;;;;32.98;29.35;98655.97;5014026;28;45485;-58
2022/06/19 09:02:08;;;;;;;;;14.75;11.50;;;;;33.09;28.78;98647.91;5007065;28;45806;-59
2022/06/19 09:08:04;;;;;;;;;17.00;13.50;;;;;33.27;28.02;98637.13;5011988;28;45490;-58
2022/06/19 09:10:55;;;;;;;;;12.25;11.25;;;;;33.37;27.28;98636.66;5012038;28;45521;-58
2022/06/19 09:13:45;;;;;;;;;12.00;11.00;;;;;33.45;27.64;98625.47;5006798;28;46218;-58
2022/06/19 09:16:19;;;;;;;;;14.00;12.75;;;;;33.52;27.90;98619.94;5013617;28;45517;-59
2022/06/19 09:18:56;;;;;;;;;12.75;12.75;;;;;33.57;27.34;98626.44;5012041;28;45255;-59
2022/06/19 09:21:36;;;;;;;;;12.75;10.25;;;;;33.66;27.12;98628.91;5009946;28;45348;-58
2022/06/19 09:24:08;;;;;;;;;13.00;11.50;;;;;33.72;26.34;98615.16;5013563;28;45466;-59
2022/06/19 09:26:37;;;;;;;;;17.50;12.75;;;;;33.81;26.92;98632.19;5011355;28;45461;-59
2022/06/19 09:29:29;;;;;;;;;14.00;13.00;;;;;33.88;26.52;98616.53;5012801;28;45514;-58
2022/06/19 09:31:58;;;;;;;;;18.00;13.50;;;;;33.90;26.27;98623.47;5013487;28;45533;-59
2022/06/19 09:34:31;;;;;;;;;16.75;11.00;;;;;33.94;25.85;98621.13;5010419;28;47564;-59
2022/06/19 09:36:56;;;;;;;;;16.25;10.25;;;;;33.97;26.62;98618.78;5013621;28;45441;-59
2022/06/19 09:39:31;;;;;;;;;11.75;9.75;;;;;34.04;25.67;98609.69;5013472;28;45424;-59
2022/06/19 09:42:03;;;;;;;;;12.50;10.00;;;;;34.10;25.19;98622.47;5013850;28;45423;-59
2022/06/19 09:44:40;;;;;;;;;14.25;10.25;;;;;34.16;26.30;98616.09;5013895;28;45358;-59
2022/06/19 09:47:18;;;;;;;;;16.00;13.25;;;;;34.20;25.33;98614.56;5013176;28;45465;-59
2022/06/19 09:49:53;;;;;;;;;12.00;11.00;;;;;34.24;25.13;98608.44;5012985;28;45376;-59
2022/06/19 09:52:29;;;;;;;;;8.00;8.00;;;;;34.29;25.27;98616.84;5012643;28;45430;-59
2022/06/19 09:55:05;;;;;;;;;11.50;10.50;;;;;34.36;24.91;98613.19;5013769;28;45386;-59
2022/06/19 09:57:38;;;;;;;;;11.75;10.25;;;;;34.43;25.17;98611.22;5009873;28;45312;-60
2022/06/19 10:00:03;;;;;;;;;14.75;12.00;;;;;34.48;24.27;98612.22;5013568;28;45354;-59
2022/06/19 10:02:58;;;;;;;;;7.75;6.75;;;;;34.53;23.68;98623.31;5013994;28;45343;-59
2022/06/19 10:05:57;;;;;;;;;13.00;9.50;;;;;34.56;24.36;98611.06;5011255;28;45738;-59
2022/06/19 10:08:36;;;;;;;;;12.25;11.25;;;;;34.60;24.58;98615.03;5009906;28;45511;-59
2022/06/19 10:11:08;;;;;;;;;20.00;13.75;;;;;34.64;24.45;98602.56;5012686;28;45324;-59
2022/06/19 10:13:42;;;;;;;;;10.00;9.00;;;;;34.68;24.64;98598.31;5013382;28;45194;-59
2022/06/19 10:16:39;;;;;;;;;9.25;8.75;;;;;34.74;24.96;98604.75;5006163;28;45538;-60
2022/06/19 10:19:24;;;;;;;;;13.00;11.50;;;;;34.79;23.36;98594.81;5005893;28;45533;-59
2022/06/19 10:22:35;;;;;;;;;13.00;11.75;;;;;34.85;23.88;98601.31;5016280;28;45465;-60
2022/06/19 10:25:12;;;;;;;;;14.00;11.50;;;;;34.91;24.72;98601.19;5015479;28;45403;-60
2022/06/19 10:27:45;;;;;;;;;15.25;10.00;;;;;34.97;23.95;98583.00;5014677;28;45469;-60
2022/06/19 10:30:22;;;;;;;;;12.25;12.00;;;;;35.02;24.00;98598.75;5016681;28;45483;-59
2022/06/19 10:32:56;;;;;;;;;13.75;11.25;;;;;35.07;23.57;98590.66;5015368;28;45440;-59
2022/06/19 10:35:37;;;;;;;;;11.75;11.25;;;;;35.12;23.97;98588.91;5009964;28;45409;-59
2022/06/19 10:38:30;;;;;;;;;16.25;11.75;;;;;35.18;23.31;98579.78;5010661;28;45637;-59
2022/06/19 10:42:19;;;;;;;;;15.00;11.75;;;;;35.27;23.67;98577.56;5015898;28;45460;-59
2022/06/19 10:44:45;;;;;;;;;12.75;9.25;;;;;35.38;23.26;98578.66;4996814;28;45419;-60
2022/06/19 10:47:42;;;;;;;;;12.75;11.00;;;;;35.43;23.45;98587.84;5014815;28;45506;-59
2022/06/19 10:50:15;;;;;;;;;18.75;17.50;;;;;35.44;23.45;98575.81;5015998;28;46297;-59
2022/06/19 10:52:46;;;;;;;;;12.25;10.25;;;;;35.46;22.92;98575.59;5016543;28;45485;-60
2022/06/19 10:55:36;;;;;;;;;11.25;9.25;;;;;35.50;23.38;98574.06;5006941;28;45540;-59
2022/06/19 10:58:10;;;;;;;;;37.33;32.00;;;;;35.53;22.80;98574.38;5008178;28;45371;-60
2022/06/19 11:00:35;;;;;;;;;15.25;9.00;;;;;35.55;22.76;98580.47;5015198;28;45520;-60
2022/06/19 11:06:08;;;;;;;;;10.75;10.00;;;;;35.63;22.94;98576.56;5015925;28;45486;-59
2022/06/19 11:08:35;;;;;;;;;17.75;15.25;;;;;35.66;23.06;98574.19;5015927;28;45392;-59
2022/06/19 11:11:02;;;;;;;;;11.75;11.00;;;;;35.71;22.94;98567.97;5015761;28;45528;-59
2022/06/19 11:13:58;;;;;;;;;13.00;10.50;;;;;35.74;23.12;98573.00;5016200;28;45407;-59
2022/06/19 11:16:24;;;;;;;;;19.00;10.75;;;;;35.77;21.85;98572.56;5011561;28;45418;-60
2022/06/19 11:18:51;;;;;;;;;13.50;10.75;;;;;35.80;22.71;98588.56;5011586;28;45387;-59
2022/06/19 11:21:21;;;;;;;;;10.00;7.75;;;;;35.84;22.75;98578.78;5012820;28;45999;-59
2022/06/19 11:23:47;;;;;;;;;10.00;10.00;;;;;35.87;21.93;98580.19;5007044;28;45474;-59
2022/06/19 11:26:14;;;;;;;;;7.75;5.00;;;;;35.90;22.10;98586.06;5013966;28;45500;-59
2022/06/19 11:29:01;;;;;;;;;13.75;11.25;;;;;35.94;22.39;98578.19;5015821;28;45252;-60
2022/06/19 11:31:33;;;;;;;;;12.50;8.75;;;;;35.99;22.12;98572.81;5015123;28;46532;-60
2022/06/19 11:34:43;;;;;;;;;7.00;6.50;;;;;36.03;22.58;98562.22;5015656;28;45426;-59
2022/06/19 11:37:28;;;;;;;;;12.50;11.50;;;;;36.03;22.14;98565.75;5008821;28;45514;-59
2022/06/19 11:39:53;;;;;;;;;11.00;9.50;;;;;36.08;21.89;98573.28;5010522;28;45582;-59
2022/06/19 11:42:27;;;;;;;;;9.25;6.75;;;;;36.09;21.30;98563.97;5015148;28;45307;-59